« Back
NWS Peachtree City, Ga » Text Product » CSG Terminal Aerodrome Forecast

Printer-friendly Version
Current Version              Previous Versions:   1  2  3  4  5  6  7  8  9  

Terminal Aerodrome Forecast

FTUS42 KFFC 291740
KCSG 291740Z 2918/3018 22003KT P6SM SCT120
     FM300000 00000KT P6SM BKN070
     FM300700 00000KT P6SM BKN040
     FM301500 19003KT P6SM BKN040=

USA.gov is the U.S. government's official web portal to all federal, state and local government web resources and services.